Time;durP1;ratioP1;P1;durP2;ratioP2;P2;SDS_P1;SDS_P2;PMS_P1;PMS_P2;Temp;Humidity;BMP_temperature;BMP_pressure;BME280_temperature;BME280_humidity;BME280_pressure;Samples;Min_cycle;Max_cycle;Signal;HPM_P1;HPM_P2
2024/04/08 00:01:18;;;;;;;;;;;16.30;35.10;18.00;98033.00;;;;5091399;28;1732;-35
2024/04/08 00:03:44;;;;;;;;;;;16.30;34.80;18.00;98038.00;;;;5090366;28;1668;-36
2024/04/08 00:06:11;;;;;;;;;;;16.40;34.70;18.10;98036.00;;;;5091795;28;1536;-36
2024/04/08 00:08:37;;;;;;;;;;;16.40;34.60;18.10;98030.00;;;;5090714;28;1769;-36
2024/04/08 00:11:06;;;;;;;;;;;16.40;34.50;18.10;98028.00;;;;5091246;28;2163;-36
2024/04/08 00:13:33;;;;;;;;;;;16.40;34.30;18.10;98024.00;;;;5090526;28;1962;-36
2024/04/08 00:16:02;;;;;;;;;;;16.40;34.20;18.10;98021.00;;;;5091225;28;1669;-35
2024/04/08 00:18:28;;;;;;;;;;;16.40;34.10;18.10;98016.00;;;;5091334;28;1993;-36
2024/04/08 00:21:02;;;;;;;;;;;16.40;34.10;18.10;98007.00;;;;5092151;28;1670;-37
2024/04/08 00:23:28;;;;;;;;;;;16.40;34.30;18.10;98004.00;;;;5091164;28;1817;-37
2024/04/08 00:25:55;;;;;;;;;;;16.30;34.70;18.00;98008.00;;;;5090435;28;1683;-36
2024/04/08 00:28:21;;;;;;;;;;;16.30;35.10;18.00;98006.00;;;;5091352;28;1709;-36
2024/04/08 00:30:49;;;;;;;;;;;16.30;34.90;18.00;98002.00;;;;5090286;28;1829;-36
2024/04/08 00:33:16;;;;;;;;;;;16.30;34.70;18.00;98000.00;;;;5091117;28;1668;-37
2024/04/08 00:35:43;;;;;;;;;;;16.30;34.50;18.10;97993.00;;;;5089252;28;1583;-37
2024/04/08 00:38:09;;;;;;;;;;;16.40;34.40;18.10;97992.00;;;;5084567;28;1914;-35
2024/04/08 00:40:37;;;;;;;;;;;16.40;34.30;18.10;98000.00;;;;5081642;28;1768;-36
2024/04/08 00:43:05;;;;;;;;;;;16.40;34.20;18.10;98006.00;;;;5085586;28;1825;-36
2024/04/08 00:45:32;;;;;;;;;;;16.40;34.10;18.10;97999.00;;;;5084083;28;1826;-40
2024/04/08 00:47:58;;;;;;;;;;;16.40;34.00;18.10;97992.00;;;;5081039;28;1926;-36
2024/04/08 00:50:27;;;;;;;;;;;16.40;34.00;18.00;97990.00;;;;5083876;28;1650;-36
2024/04/08 00:52:54;;;;;;;;;;;16.40;34.30;18.00;97991.00;;;;5080879;28;1745;-36
2024/04/08 00:55:21;;;;;;;;;;;16.30;34.70;18.00;97996.00;;;;5087030;28;1666;-36
2024/04/08 00:57:47;;;;;;;;;;;16.30;35.10;17.90;97986.00;;;;5083238;28;1731;-36
2024/04/08 01:00:15;;;;;;;;;;;16.20;35.40;17.90;98004.00;;;;5087757;28;1902;-36
2024/04/08 01:02:41;;;;;;;;;;;16.20;35.70;17.90;97996.00;;;;5086606;28;2160;-37
2024/04/08 01:05:13;;;;;;;;;;;16.20;35.80;17.90;97997.00;;;;5082310;28;1930;-36
2024/04/08 01:07:40;;;;;;;;;;;16.20;35.40;17.90;98012.00;;;;5085159;28;1674;-35
2024/04/08 01:10:08;;;;;;;;;;;16.20;35.10;17.90;98030.00;;;;5085108;28;1704;-37
2024/04/08 01:12:34;;;;;;;;;;;16.30;35.10;17.90;98050.00;;;;5083732;28;1987;-36
2024/04/08 01:15:01;;;;;;;;;;;16.30;34.80;18.00;98071.00;;;;5081685;28;1910;-36
2024/04/08 01:17:27;;;;;;;;;;;16.30;34.80;18.00;98087.00;;;;5089442;28;1729;-37
2024/04/08 01:19:54;;;;;;;;;;;16.30;34.60;18.00;98088.00;;;;5082720;28;1918;-36
2024/04/08 01:22:20;;;;;;;;;;;16.40;34.50;18.00;98088.00;;;;5086718;28;1799;-36
2024/04/08 01:24:49;;;;;;;;;;;16.30;34.30;18.00;98083.00;;;;5085623;28;1771;-37
2024/04/08 01:27:15;;;;;;;;;;;16.30;34.40;18.00;98089.00;;;;5083766;28;1638;-36
2024/04/08 01:29:42;;;;;;;;;;;16.30;34.80;18.00;98073.00;;;;5084603;28;1665;-37
2024/04/08 01:32:08;;;;;;;;;;;16.30;35.40;18.00;98095.00;;;;5087848;28;1786;-37
2024/04/08 01:34:35;;;;;;;;;;;16.20;35.20;18.00;98082.00;;;;5084887;28;2940;-36
2024/04/08 01:37:01;;;;;;;;;;;16.30;34.90;18.00;98068.00;;;;5085737;28;1643;-36
2024/04/08 01:39:28;;;;;;;;;;;16.30;34.80;18.00;98081.00;;;;5089431;28;1977;-36
2024/04/08 01:41:56;;;;;;;;;;;16.30;34.60;18.00;98034.00;;;;5086448;28;1701;-36
2024/04/08 01:44:23;;;;;;;;;;;16.30;34.40;18.00;98062.00;;;;5090201;28;1669;-36
2024/04/08 01:46:49;;;;;;;;;;;16.30;34.40;18.00;98038.00;;;;5087124;28;1803;-36
2024/04/08 01:49:16;;;;;;;;;;;16.40;34.30;18.00;98063.00;;;;5090054;28;1666;-35
2024/04/08 01:51:42;;;;;;;;;;;16.40;34.20;18.00;98063.00;;;;5088585;28;1930;-36
2024/04/08 01:54:12;;;;;;;;;;;16.40;34.20;18.00;98035.00;;;;5089674;28;2459;-36
2024/04/08 01:56:56;;;;;;;;;;;16.30;35.10;18.00;98027.00;;;;5087337;28;2747;-37
2024/04/08 01:59:23;;;;;;;;;;;16.30;34.90;18.00;98037.00;;;;5085486;28;2821;-36
2024/04/08 02:01:49;;;;;;;;;;;16.20;35.00;18.00;98004.00;;;;5089816;28;1923;-36
2024/04/08 02:04:16;;;;;;;;;;;16.20;34.60;18.00;97981.00;;;;5088657;28;2143;-36
2024/04/08 02:06:42;;;;;;;;;;;16.30;34.70;18.00;97985.00;;;;5089783;28;1669;-36
2024/04/08 02:09:09;;;;;;;;;;;16.30;34.50;18.00;98001.00;;;;5090972;28;2138;-36
2024/04/08 02:11:35;;;;;;;;;;;16.30;34.40;18.00;98005.00;;;;5088272;28;1695;-37
2024/04/08 02:14:04;;;;;;;;;;;16.30;34.20;18.00;97987.00;;;;5086785;28;1490;-36
2024/04/08 02:16:30;;;;;;;;;;;16.30;34.10;18.00;97994.00;;;;5090040;28;1804;-36
2024/04/08 02:18:58;;;;;;;;;;;16.30;34.00;18.00;97992.00;;;;5086410;28;1987;-36
2024/04/08 02:21:24;;;;;;;;;;;16.40;34.00;18.00;97996.00;;;;5090762;28;1761;-36
2024/04/08 02:23:51;;;;;;;;;;;16.30;34.20;18.00;97995.00;;;;5088865;28;1767;-36
2024/04/08 02:26:18;;;;;;;;;;;16.30;34.70;17.90;98010.00;;;;5091366;28;1930;-37
2024/04/08 02:28:45;;;;;;;;;;;16.30;35.10;18.00;98005.00;;;;5086136;28;1776;-36
2024/04/08 02:31:12;;;;;;;;;;;16.30;34.90;18.00;98003.00;;;;5090307;28;1918;-36
2024/04/08 02:33:40;;;;;;;;;;;16.30;34.60;18.00;98010.00;;;;5087964;28;1689;-36
2024/04/08 02:36:06;;;;;;;;;;;16.30;34.50;18.00;98008.00;;;;5088099;28;2532;-36
2024/04/08 02:38:33;;;;;;;;;;;16.30;34.40;18.00;98012.00;;;;5090297;28;1910;-35
2024/04/08 02:41:00;;;;;;;;;;;16.30;34.30;18.00;98004.00;;;;5090075;28;1759;-36
2024/04/08 02:43:27;;;;;;;;;;;16.30;34.10;18.00;98014.00;;;;5086409;28;1652;-36
2024/04/08 02:45:53;;;;;;;;;;;16.30;34.00;18.00;98016.00;;;;5087184;28;1708;-37
2024/04/08 02:48:23;;;;;;;;;;;16.40;34.00;18.00;98010.00;;;;5090279;28;1440;-37
2024/04/08 02:50:51;;;;;;;;;;;16.40;33.90;18.00;98018.00;;;;5087342;28;1956;-36
2024/04/08 02:53:19;;;;;;;;;;;16.30;34.20;18.00;98010.00;;;;5089305;28;1668;-36
2024/04/08 02:55:45;;;;;;;;;;;16.30;34.80;17.90;98014.00;;;;5084471;28;1669;-37
2024/04/08 02:58:12;;;;;;;;;;;16.20;35.10;17.90;98003.00;;;;5087463;28;1680;-37
2024/04/08 03:00:38;;;;;;;;;;;16.20;35.30;17.80;98008.00;;;;5087675;28;1905;-36
2024/04/08 03:03:06;;;;;;;;;;;16.10;35.50;17.80;98004.00;;;;5085353;28;2545;-36
2024/04/08 03:05:34;;;;;;;;;;;16.10;35.80;17.80;98007.00;;;;5086670;28;1668;-37
2024/04/08 03:08:01;;;;;;;;;;;16.10;35.20;17.80;98014.00;;;;5087726;28;1672;-36
2024/04/08 03:10:27;;;;;;;;;;;16.20;35.10;17.90;98008.00;;;;5091790;28;1683;-37
2024/04/08 03:12:55;;;;;;;;;;;16.20;34.90;17.90;98001.00;;;;5088050;28;2139;-36
2024/04/08 03:15:21;;;;;;;;;;;16.20;34.70;17.90;98007.00;;;;5089486;28;1955;-36
2024/04/08 03:17:48;;;;;;;;;;;16.20;34.60;17.90;98018.00;;;;5089691;28;1782;-37
2024/04/08 03:20:14;;;;;;;;;;;16.30;34.40;18.00;98013.00;;;;5088541;28;1910;-36
2024/04/08 03:22:42;;;;;;;;;;;16.30;34.40;18.00;98012.00;;;;5090792;28;1995;-36
2024/04/08 03:25:08;;;;;;;;;;;16.30;34.20;17.90;98016.00;;;;5087555;28;2058;-36
2024/04/08 03:27:36;;;;;;;;;;;16.30;34.40;17.90;98016.00;;;;5087893;28;1678;-36
2024/04/08 03:30:02;;;;;;;;;;;16.20;34.70;17.90;98015.00;;;;5085091;28;1914;-36
2024/04/08 03:32:29;;;;;;;;;;;16.20;35.20;17.90;98009.00;;;;5087260;28;1581;-36
2024/04/08 03:34:56;;;;;;;;;;;16.20;35.10;17.90;97999.00;;;;5101609;28;2008;-35
2024/04/08 03:37:26;;;;;;;;;;;16.20;34.80;17.90;97999.00;;;;5090799;28;1928;-36
2024/04/08 03:39:54;;;;;;;;;;;16.20;34.70;17.90;98005.00;;;;5088134;28;1981;-37
2024/04/08 03:42:22;;;;;;;;;;;16.30;34.60;17.90;98011.00;;;;5089775;28;1698;-36
2024/04/08 03:44:49;;;;;;;;;;;16.30;34.40;18.00;97999.00;;;;5087962;28;1942;-36
2024/04/08 03:47:16;;;;;;;;;;;16.30;34.30;18.00;98005.00;;;;5088388;28;1924;-36
2024/04/08 03:49:42;;;;;;;;;;;16.30;34.20;18.00;97994.00;;;;5090650;28;1697;-36
2024/04/08 03:52:09;;;;;;;;;;;16.30;34.10;18.00;98014.00;;;;5088585;28;2034;-36
2024/04/08 03:54:36;;;;;;;;;;;16.30;34.00;17.90;98007.00;;;;5087591;28;1688;-35
2024/04/08 03:57:04;;;;;;;;;;;16.30;34.40;17.90;98013.00;;;;5083431;28;1678;-36
2024/04/08 03:59:31;;;;;;;;;;;16.20;34.80;17.90;98008.00;;;;5089419;28;1966;-36
2024/04/08 04:01:57;;;;;;;;;;;16.20;35.00;17.90;98022.00;;;;5089484;28;2322;-36
2024/04/08 04:04:25;;;;;;;;;;;16.20;34.80;17.90;98039.00;;;;5082795;28;2192;-36
2024/04/08 04:06:51;;;;;;;;;;;16.20;34.50;17.90;98047.00;;;;5087185;28;1645;-36
2024/04/08 04:09:18;;;;;;;;;;;16.20;34.40;17.90;98044.00;;;;5088668;28;1571;-36
2024/04/08 04:11:44;;;;;;;;;;;16.30;34.40;18.00;98032.00;;;;5085442;28;1955;-37
2024/04/08 04:14:13;;;;;;;;;;;16.30;34.30;18.00;98040.00;;;;5089432;28;1656;-35
2024/04/08 04:16:39;;;;;;;;;;;16.30;34.10;18.00;98039.00;;;;5088343;28;1699;-35
2024/04/08 04:19:06;;;;;;;;;;;16.30;34.00;18.00;98044.00;;;;5087783;28;1977;-36
2024/04/08 04:21:32;;;;;;;;;;;16.30;34.00;18.00;98044.00;;;;5089731;28;1539;-37
2024/04/08 04:23:59;;;;;;;;;;;16.30;34.10;17.90;98055.00;;;;5088094;28;1684;-36
2024/04/08 04:26:26;;;;;;;;;;;16.30;34.60;17.90;98053.00;;;;5087570;28;1841;-36
2024/04/08 04:28:53;;;;;;;;;;;16.20;34.80;17.90;98052.00;;;;5087087;28;1617;-36
2024/04/08 04:31:21;;;;;;;;;;;16.20;34.90;17.90;98070.00;;;;5088841;28;1709;-37
2024/04/08 04:33:48;;;;;;;;;;;16.20;34.50;17.90;98062.00;;;;5087537;28;1772;-36
2024/04/08 04:36:15;;;;;;;;;;;16.20;34.40;17.90;98056.00;;;;5088931;28;1948;-37
2024/04/08 04:38:42;;;;;;;;;;;16.20;34.30;17.90;98056.00;;;;5088350;28;2139;-36
2024/04/08 04:41:09;;;;;;;;;;;16.30;34.30;18.00;98069.00;;;;5087662;28;1973;-37
2024/04/08 04:43:37;;;;;;;;;;;16.30;34.20;18.00;98059.00;;;;5086380;28;1665;-37
2024/04/08 04:46:03;;;;;;;;;;;16.30;34.00;18.00;98057.00;;;;5086143;28;1646;-36
2024/04/08 04:48:32;;;;;;;;;;;16.30;34.00;18.00;98050.00;;;;5088277;28;1682;-35
2024/04/08 04:50:58;;;;;;;;;;;16.30;33.80;17.90;98041.00;;;;5087614;28;1719;-37
2024/04/08 04:53:25;;;;;;;;;;;16.30;34.20;17.90;98048.00;;;;5087329;28;1661;-37
2024/04/08 04:55:52;;;;;;;;;;;16.20;34.60;17.90;98031.00;;;;5088212;28;1678;-37
2024/04/08 04:58:20;;;;;;;;;;;16.20;35.00;17.80;98049.00;;;;5087493;28;1803;-38
2024/04/08 05:00:47;;;;;;;;;;;16.10;35.10;17.80;98049.00;;;;5087099;28;2680;-37
2024/04/08 05:03:14;;;;;;;;;;;16.10;35.50;17.70;98047.00;;;;5088293;28;2345;-36
2024/04/08 05:05:42;;;;;;;;;;;16.10;35.70;17.80;98045.00;;;;5086741;28;2573;-37
2024/04/08 05:08:09;;;;;;;;;;;16.10;35.40;17.80;98045.00;;;;5089004;28;1675;-37
2024/04/08 05:10:35;;;;;;;;;;;16.10;35.10;17.80;98043.00;;;;5087410;28;1933;-36
2024/04/08 05:13:03;;;;;;;;;;;16.10;34.80;17.80;98046.00;;;;5089587;28;1969;-36
2024/04/08 05:15:29;;;;;;;;;;;16.20;34.70;17.90;98047.00;;;;5088416;28;1840;-37
2024/04/08 05:17:57;;;;;;;;;;;16.20;34.60;17.90;98038.00;;;;5088334;28;1645;-36
2024/04/08 05:20:25;;;;;;;;;;;16.20;34.40;17.90;98038.00;;;;5089947;28;1906;-36
2024/04/08 05:22:54;;;;;;;;;;;16.20;34.30;17.90;98048.00;;;;5087687;28;1636;-37
2024/04/08 05:25:20;;;;;;;;;;;16.20;34.10;17.90;98051.00;;;;5088705;28;1909;-36
2024/04/08 05:27:47;;;;;;;;;;;16.30;34.20;17.90;98046.00;;;;5088181;28;1555;-37
2024/04/08 05:30:13;;;;;;;;;;;16.20;34.50;17.90;98045.00;;;;5086921;28;1685;-37
2024/04/08 05:32:40;;;;;;;;;;;16.20;35.10;17.80;98057.00;;;;5084253;28;2280;-37
2024/04/08 05:35:07;;;;;;;;;;;16.20;35.10;17.80;98058.00;;;;5087692;28;1695;-37
2024/04/08 05:37:35;;;;;;;;;;;16.20;34.70;17.90;98055.00;;;;5090409;28;1464;-37
2024/04/08 05:40:03;;;;;;;;;;;16.20;34.60;17.90;98074.00;;;;5090965;28;1977;-37
2024/04/08 05:42:30;;;;;;;;;;;16.20;34.40;17.90;98070.00;;;;5083372;28;1624;-37
2024/04/08 05:44:56;;;;;;;;;;;16.20;34.40;17.90;98063.00;;;;5090948;28;1925;-37
2024/04/08 05:47:23;;;;;;;;;;;16.30;34.30;17.90;98074.00;;;;5091999;28;1821;-36
2024/04/08 05:49:49;;;;;;;;;;;16.30;34.10;17.90;98066.00;;;;5090924;28;1692;-37
2024/04/08 05:52:18;;;;;;;;;;;16.30;34.00;18.00;98072.00;;;;5091639;28;1827;-37
2024/04/08 05:54:44;;;;;;;;;;;16.30;33.90;17.90;98074.00;;;;5089129;28;1949;-37
2024/04/08 05:57:13;;;;;;;;;;;16.30;34.20;17.90;98074.00;;;;5092596;28;1652;-37
2024/04/08 05:59:39;;;;;;;;;;;16.20;34.50;17.90;98085.00;;;;5088787;28;2187;-37
2024/04/08 06:02:07;;;;;;;;;;;16.20;35.00;17.90;98086.00;;;;5091772;28;1654;-36
2024/04/08 06:04:33;;;;;;;;;;;16.20;34.80;17.90;98090.00;;;;5092020;28;1794;-36
2024/04/08 06:07:00;;;;;;;;;;;16.20;34.50;17.90;98081.00;;;;5087908;28;1768;-37
2024/04/08 06:09:26;;;;;;;;;;;16.20;34.30;17.90;98086.00;;;;5101760;28;1593;-38
2024/04/08 06:11:54;;;;;;;;;;;16.30;34.30;18.00;98084.00;;;;5086526;28;1673;-38
2024/04/08 06:14:21;;;;;;;;;;;16.30;34.20;18.00;98098.00;;;;5092080;28;1983;-37
2024/04/08 06:16:48;;;;;;;;;;;16.30;34.00;18.00;98097.00;;;;5090847;28;1903;-38
2024/04/08 06:19:14;;;;;;;;;;;16.30;34.00;18.00;98089.00;;;;5092425;28;2008;-38
2024/04/08 06:21:42;;;;;;;;;;;16.40;33.90;18.00;98091.00;;;;5091764;28;1674;-38
2024/04/08 06:24:08;;;;;;;;;;;16.30;34.00;18.00;98093.00;;;;5088501;28;1748;-37
2024/04/08 06:26:35;;;;;;;;;;;16.30;34.30;17.90;98099.00;;;;5089745;28;1664;-38
2024/04/08 06:29:02;;;;;;;;;;;16.20;34.70;17.90;98100.00;;;;5088704;28;1677;-37
2024/04/08 06:31:30;;;;;;;;;;;16.20;34.90;17.90;98100.00;;;;5092447;28;1923;-37
2024/04/08 06:33:56;;;;;;;;;;;16.20;34.40;18.00;98092.00;;;;5084944;28;1673;-38
2024/04/08 06:36:24;;;;;;;;;;;16.30;34.40;18.00;98088.00;;;;5091238;28;1813;-39
2024/04/08 06:38:50;;;;;;;;;;;16.30;34.20;18.00;98094.00;;;;5089943;28;1632;-38
2024/04/08 06:41:17;;;;;;;;;;;16.30;34.10;18.00;98095.00;;;;5085483;28;1946;-38
2024/04/08 06:43:43;;;;;;;;;;;16.30;34.00;18.00;98091.00;;;;5087763;28;1688;-37
2024/04/08 06:46:10;;;;;;;;;;;16.30;33.90;18.00;98099.00;;;;5089948;28;1906;-38
2024/04/08 06:48:38;;;;;;;;;;;16.30;33.80;18.00;98096.00;;;;5091632;28;1692;-38
2024/04/08 06:51:05;;;;;;;;;;;16.30;33.70;18.00;98087.00;;;;5085605;28;1915;-38
2024/04/08 06:53:31;;;;;;;;;;;16.30;33.90;18.00;98088.00;;;;5092359;28;1543;-38
2024/04/08 06:55:58;;;;;;;;;;;16.30;34.30;18.00;98095.00;;;;5092599;28;1744;-39
2024/04/08 06:58:24;;;;;;;;;;;16.20;34.70;17.90;98100.00;;;;5088606;28;1824;-38
2024/04/08 07:00:51;;;;;;;;;;;16.20;35.00;17.80;98089.00;;;;5089387;28;1914;-38
2024/04/08 07:03:17;;;;;;;;;;;16.10;35.40;17.80;98090.00;;;;5088387;28;1688;-39
2024/04/08 07:05:46;;;;;;;;;;;16.10;35.60;17.80;98090.00;;;;5087094;28;2557;-38
2024/04/08 07:08:12;;;;;;;;;;;16.10;35.40;17.90;98086.00;;;;5091733;28;1907;-38
2024/04/08 07:10:40;;;;;;;;;;;16.20;35.00;17.90;98086.00;;;;5089919;28;1960;-38
2024/04/08 07:13:06;;;;;;;;;;;16.20;34.80;18.00;98091.00;;;;5084942;28;1657;-38
2024/04/08 07:15:34;;;;;;;;;;;16.30;34.70;18.00;98092.00;;;;5090673;28;1946;-37
2024/04/08 07:18:00;;;;;;;;;;;16.40;34.50;18.10;98095.00;;;;5085353;28;1486;-38
2024/04/08 07:20:27;;;;;;;;;;;16.40;34.30;18.10;98088.00;;;;5087605;28;1977;-37
2024/04/08 07:22:55;;;;;;;;;;;16.50;34.30;18.20;98076.00;;;;5084649;28;1925;-37
2024/04/08 07:25:22;;;;;;;;;;;16.50;34.10;18.20;98087.00;;;;5087260;28;2340;-38
2024/04/08 07:27:49;;;;;;;;;;;16.50;34.10;18.20;98086.00;;;;5089538;28;1669;-38
2024/04/08 07:30:16;;;;;;;;;;;16.50;34.40;18.20;98083.00;;;;5081451;28;1451;-38
2024/04/08 07:32:42;;;;;;;;;;;16.60;34.70;18.20;98084.00;;;;5086322;28;1678;-38
2024/04/08 07:35:12;;;;;;;;;;;16.50;34.90;18.30;98073.00;;;;5081894;28;1892;-38
2024/04/08 07:37:39;;;;;;;;;;;16.60;35.10;18.30;98083.00;;;;5083193;28;1581;-38
2024/04/08 07:40:08;;;;;;;;;;;16.60;34.50;18.30;98076.00;;;;5081458;28;1906;-37
2024/04/08 07:42:34;;;;;;;;;;;16.70;34.30;18.40;98074.00;;;;5085463;28;1478;-38
2024/04/08 07:45:02;;;;;;;;;;;16.70;34.20;18.40;98081.00;;;;5085035;28;1657;-38
2024/04/08 07:47:28;;;;;;;;;;;16.70;34.00;18.40;98084.00;;;;5088226;28;1707;-38
2024/04/08 07:49:56;;;;;;;;;;;16.80;34.00;18.50;98079.00;;;;5089875;28;1696;-38
2024/04/08 07:52:22;;;;;;;;;;;16.80;33.90;18.50;98076.00;;;;5088482;28;1672;-38
2024/04/08 07:54:49;;;;;;;;;;;16.90;33.80;18.60;98078.00;;;;5087585;28;1691;-38
2024/04/08 07:57:16;;;;;;;;;;;16.90;33.80;18.60;98075.00;;;;5087609;28;2667;-37
2024/04/08 07:59:44;;;;;;;;;;;16.90;34.10;18.60;98070.00;;;;5089224;28;1988;-37
2024/04/08 08:02:10;;;;;;;;;;;16.90;34.50;18.60;98063.00;;;;5090361;28;1673;-38
2024/04/08 08:04:37;;;;;;;;;;;16.90;34.40;18.60;98064.00;;;;5081206;28;2660;-38
2024/04/08 08:07:04;;;;;;;;;;;16.90;34.20;18.60;98071.00;;;;5085061;28;1689;-37
2024/04/08 08:09:31;;;;;;;;;;;16.90;34.10;18.60;98076.00;;;;5085230;28;1519;-36
2024/04/08 08:11:58;;;;;;;;;;;17.00;34.00;18.60;98078.00;;;;5084639;28;1702;-39
2024/04/08 08:14:27;;;;;;;;;;;17.00;33.80;18.70;98085.00;;;;5082548;28;1701;-38
2024/04/08 08:16:54;;;;;;;;;;;17.00;33.70;18.70;98069.00;;;;5088521;28;1894;-37
2024/04/08 08:19:21;;;;;;;;;;;17.00;33.60;18.70;98073.00;;;;5089083;28;1785;-37
2024/04/08 08:21:48;;;;;;;;;;;17.10;33.60;18.80;98080.00;;;;5086763;28;1902;-37
2024/04/08 08:24:15;;;;;;;;;;;17.10;33.50;18.80;98077.00;;;;5087098;28;1672;-36
2024/04/08 08:26:42;;;;;;;;;;;17.10;33.90;18.80;98071.00;;;;5082202;28;1629;-37
2024/04/08 08:30:45;;;;;;;;;;;17.10;34.20;18.90;98076.00;;;;5582872;25;1668;-37
2024/04/08 08:33:14;;;;;;;;;;;17.10;34.20;18.90;98076.00;;;;5558777;25;2194;-37
2024/04/08 08:35:44;;;;;;;;;;;17.10;34.00;18.80;98076.00;;;;5559747;25;2176;-37
2024/04/08 08:38:12;;;;;;;;;;;17.10;33.80;18.90;98067.00;;;;5563367;25;1993;-38
2024/04/08 08:40:45;;;;;;;;;;;17.20;33.80;18.90;98063.00;;;;5562384;25;2339;-37
2024/04/08 08:43:12;;;;;;;;;;;17.20;33.70;18.90;98071.00;;;;5562220;25;1959;-38
2024/04/08 08:45:47;;;;;;;;;;;17.20;33.60;19.00;98065.00;;;;5566775;25;2352;-37
2024/04/08 08:48:14;;;;;;;;;;;17.20;33.60;19.00;98072.00;;;;5560631;25;2415;-37
2024/04/08 08:50:45;;;;;;;;;;;17.30;33.50;19.00;98058.00;;;;5565094;25;2425;-37
2024/04/08 08:53:15;;;;;;;;;;;17.30;33.60;19.00;98056.00;;;;5567567;25;1984;-37
2024/04/08 08:55:42;;;;;;;;;;;17.30;33.90;19.00;98055.00;;;;5566296;25;2145;-37
2024/04/08 08:58:12;;;;;;;;;;;17.30;34.30;19.00;98055.00;;;;5564652;25;2339;-37
2024/04/08 09:00:42;;;;;;;;;;;17.20;34.70;19.00;98052.00;;;;5556889;25;2286;-38
2024/04/08 09:03:14;;;;;;;;;;;17.20;35.80;19.00;98055.00;;;;5564769;25;1960;-37
2024/04/08 09:05:41;;;;;;;;;;;17.20;35.30;19.00;98067.00;;;;5566987;25;2214;-37
2024/04/08 09:08:12;;;;;;;;;;;17.20;35.00;19.00;98058.00;;;;5563583;25;2136;-37
2024/04/08 09:10:42;;;;;;;;;;;17.20;34.50;19.00;98058.00;;;;5560278;25;2097;-37
2024/04/08 09:13:22;;;;;;;;;;;17.20;34.40;19.00;98056.00;;;;5561784;25;1940;-36
2024/04/08 09:15:52;;;;;;;;;;;17.30;34.30;19.00;98044.00;;;;5562710;25;2291;-37
2024/04/08 09:18:22;;;;;;;;;;;17.30;34.10;19.10;98042.00;;;;5559957;25;2167;-38
2024/04/08 09:20:50;;;;;;;;;;;17.30;34.00;19.10;98041.00;;;;5568551;25;1871;-37
2024/04/08 09:23:20;;;;;;;;;;;17.40;34.00;19.10;98049.00;;;;5566975;25;2345;-38
2024/04/08 09:25:47;;;;;;;;;;;17.40;33.80;19.20;98052.00;;;;5563344;25;3219;-37
2024/04/08 09:28:17;;;;;;;;;;;17.40;33.70;19.20;98053.00;;;;5567036;25;2289;-37
2024/04/08 09:30:44;;;;;;;;;;;17.40;34.80;19.20;98052.00;;;;5563171;25;2214;-36
2024/04/08 09:33:17;;;;;;;;;;;17.40;35.10;19.20;98047.00;;;;5565597;25;2207;-37
2024/04/08 09:35:44;;;;;;;;;;;17.40;35.30;19.20;98049.00;;;;5564824;25;2297;-37
2024/04/08 09:38:14;;;;;;;;;;;17.40;34.50;19.20;98051.00;;;;5566620;25;2388;-37
2024/04/08 09:40:42;;;;;;;;;;;17.40;34.40;19.30;98038.00;;;;5560670;25;2439;-37
2024/04/08 09:43:12;;;;;;;;;;;17.50;34.30;19.30;98033.00;;;;5545697;25;2290;-37
2024/04/08 09:45:40;;;;;;;;;;;17.50;34.10;19.30;98032.00;;;;5544965;25;2114;-38
2024/04/08 09:48:12;;;;;;;;;;;17.50;34.00;19.30;98040.00;;;;5548406;25;2164;-38
2024/04/08 09:50:43;;;;;;;;;;;17.50;33.80;19.30;98041.00;;;;5537203;25;2152;-38
2024/04/08 09:53:13;;;;;;;;;;;17.50;33.70;19.40;98032.00;;;;5551802;25;2264;-37
2024/04/08 09:55:41;;;;;;;;;;;17.50;33.70;19.40;98036.00;;;;5544945;25;1870;-38
2024/04/08 09:58:16;;;;;;;;;;;17.60;33.90;19.40;98018.00;;;;5547999;25;2371;-36
2024/04/08 10:00:44;;;;;;;;;;;17.60;34.20;19.40;98015.00;;;;5544010;25;2327;-37
2024/04/08 10:03:16;;;;;;;;;;;17.50;34.30;19.30;98025.00;;;;5544603;25;2208;-38
2024/04/08 10:05:46;;;;;;;;;;;17.50;34.20;19.40;98027.00;;;;5545679;25;2266;-38
2024/04/08 10:08:16;;;;;;;;;;;17.60;34.20;19.40;98009.00;;;;5545252;25;2265;-37
2024/04/08 10:10:44;;;;;;;;;;;17.50;33.90;19.40;98006.00;;;;5544759;25;2326;-38
2024/04/08 10:13:14;;;;;;;;;;;17.60;34.00;19.40;98002.00;;;;5545955;25;2248;-37
2024/04/08 10:15:43;;;;;;;;;;;17.60;33.80;19.40;98009.00;;;;5547104;25;2253;-37
2024/04/08 10:18:13;;;;;;;;;;;17.60;33.80;19.40;98002.00;;;;5548439;25;2395;-37
2024/04/08 10:20:42;;;;;;;;;;;17.60;33.70;19.50;97994.00;;;;5546686;25;2395;-37
2024/04/08 10:23:14;;;;;;;;;;;17.70;33.70;19.50;98002.00;;;;5550676;25;2414;-37
2024/04/08 10:25:47;;;;;;;;;;;17.70;33.70;19.50;98007.00;;;;5544738;25;2358;-38
2024/04/08 10:28:19;;;;;;;;;;;17.70;33.90;19.60;97997.00;;;;5542734;25;1973;-37
2024/04/08 10:30:47;;;;;;;;;;;17.70;34.20;19.50;97994.00;;;;5545650;25;2403;-38
2024/04/08 10:33:17;;;;;;;;;;;17.70;34.10;19.50;98004.00;;;;5551573;25;2299;-37
2024/04/08 10:35:44;;;;;;;;;;;17.60;34.00;19.50;97991.00;;;;5545650;25;2213;-37
2024/04/08 10:38:17;;;;;;;;;;;17.70;34.00;19.60;98004.00;;;;5546109;25;1977;-37
2024/04/08 10:40:47;;;;;;;;;;;17.70;33.80;19.60;97987.00;;;;5547599;25;1968;-37
2024/04/08 10:43:14;;;;;;;;;;;17.70;33.70;19.60;97992.00;;;;5551777;25;1973;-37
2024/04/08 10:45:44;;;;;;;;;;;17.70;33.70;19.60;97994.00;;;;5549213;25;2858;-37
2024/04/08 10:48:11;;;;;;;;;;;17.70;33.60;19.60;97989.00;;;;5551952;25;2097;-37
2024/04/08 10:50:42;;;;;;;;;;;17.70;33.50;19.60;97980.00;;;;5553078;25;1734;-36
2024/04/08 10:53:09;;;;;;;;;;;17.80;33.70;19.60;97986.00;;;;5551206;25;2313;-37
2024/04/08 10:55:42;;;;;;;;;;;17.80;34.30;19.60;97975.00;;;;5546001;25;2508;-38
2024/04/08 10:58:11;;;;;;;;;;;17.80;34.40;19.60;97976.00;;;;5541026;25;2355;-38
2024/04/08 11:00:42;;;;;;;;;;;17.80;34.60;19.70;97973.00;;;;5548181;25;2322;-37
2024/04/08 11:03:09;;;;;;;;;;;17.70;34.90;19.60;97974.00;;;;5537861;25;2383;-36
2024/04/08 11:05:39;;;;;;;;;;;17.70;35.20;19.60;97966.00;;;;5548415;25;2218;-38
2024/04/08 11:08:07;;;;;;;;;;;17.70;35.30;19.60;97972.00;;;;5542132;25;2366;-37
2024/04/08 11:10:37;;;;;;;;;;;17.70;34.80;19.60;97968.00;;;;5545872;25;2330;-37
2024/04/08 11:13:09;;;;;;;;;;;17.70;34.70;19.60;97950.00;;;;5542348;25;2205;-37
2024/04/08 11:15:40;;;;;;;;;;;17.70;34.40;19.60;97968.00;;;;5545190;25;2321;-37
2024/04/08 11:18:08;;;;;;;;;;;17.80;34.40;19.60;97971.00;;;;5545270;25;2977;-37
2024/04/08 11:20:38;;;;;;;;;;;17.80;34.20;19.60;97973.00;;;;5551229;25;2605;-38
2024/04/08 11:23:06;;;;;;;;;;;17.80;34.10;19.60;97980.00;;;;5544367;25;2343;-37
2024/04/08 11:25:36;;;;;;;;;;;17.80;34.00;19.70;97967.00;;;;5542839;25;2538;-37
2024/04/08 11:28:04;;;;;;;;;;;17.80;33.80;19.70;97966.00;;;;5551599;25;2234;-38
2024/04/08 11:30:37;;;;;;;;;;;17.80;34.00;19.70;97967.00;;;;5542761;25;2387;-36
2024/04/08 11:33:05;;;;;;;;;;;17.90;34.30;19.80;97977.00;;;;5542070;25;2212;-37
2024/04/08 11:35:35;;;;;;;;;;;17.90;34.50;19.70;97963.00;;;;5544910;25;2172;-37
2024/04/08 11:38:02;;;;;;;;;;;17.80;34.40;19.70;97972.00;;;;5550631;25;1972;-37
2024/04/08 11:40:52;;;;;;;;;;;17.80;34.20;19.70;97978.00;;;;5547292;25;2433;-37
2024/04/08 11:43:19;;;;;;;;;;;17.80;34.00;19.70;97959.00;;;;5549593;25;2223;-37
2024/04/08 11:45:53;;;;;;;;;;;17.90;34.00;19.70;97962.00;;;;5546138;25;2221;-37
2024/04/08 11:48:21;;;;;;;;;;;17.90;33.90;19.70;97956.00;;;;5544516;25;2177;-37
2024/04/08 11:50:51;;;;;;;;;;;17.90;33.90;19.80;97953.00;;;;5546465;25;2202;-37
2024/04/08 11:53:19;;;;;;;;;;;17.90;33.80;19.80;97962.00;;;;5552673;25;2227;-38
2024/04/08 11:55:48;;;;;;;;;;;17.90;33.70;19.80;97960.00;;;;5551941;25;2365;-37
2024/04/08 11:58:16;;;;;;;;;;;17.90;34.10;19.80;97950.00;;;;5545860;25;2203;-37
2024/04/08 12:00:46;;;;;;;;;;;17.90;34.30;19.90;97943.00;;;;5548911;25;2050;-36
2024/04/08 12:03:16;;;;;;;;;;;17.90;34.70;19.80;97949.00;;;;5545746;25;2193;-37
2024/04/08 12:05:46;;;;;;;;;;;17.90;34.50;19.80;97955.00;;;;5540670;25;2363;-37
2024/04/08 12:08:14;;;;;;;;;;;17.90;34.30;19.80;97948.00;;;;5543579;25;1979;-37
2024/04/08 12:10:46;;;;;;;;;;;17.90;34.10;19.80;97943.00;;;;5538292;25;2243;-38
2024/04/08 12:13:14;;;;;;;;;;;17.90;34.00;19.80;97940.00;;;;5546041;25;2232;-37